createdAt,value
2022-09-10T00:01:50.155Z,69.93
2022-09-10T00:04:16.963Z,69.98
2022-09-10T00:06:43.883Z,70.04
2022-09-10T00:09:11.511Z,70.06
2022-09-10T00:11:39.623Z,69.82
2022-09-10T00:14:07.271Z,69.88
2022-09-10T00:16:33.820Z,69.95
2022-09-10T00:19:01.309Z,70.08
2022-09-10T00:21:27.710Z,70.05
2022-09-10T00:23:54.391Z,69.95
2022-09-10T00:26:22.411Z,69.97
2022-09-10T00:28:49.787Z,69.92
2022-09-10T00:31:16.300Z,69.92
2022-09-10T00:33:42.844Z,69.84
2022-09-10T00:36:17.228Z,69.97
2022-09-10T00:38:43.741Z,69.98
2022-09-10T00:41:10.064Z,69.94
2022-09-10T00:43:46.559Z,69.91
2022-09-10T00:46:14.078Z,69.93
2022-09-10T00:48:40.459Z,69.92
2022-09-10T00:51:06.820Z,69.90
2022-09-10T00:53:33.459Z,69.79
2022-09-10T00:56:02.686Z,69.92
2022-09-10T00:58:29.412Z,69.82
2022-09-10T01:01:00.063Z,69.77
2022-09-10T01:03:29.322Z,69.88
2022-09-10T01:05:56.866Z,69.82
2022-09-10T01:08:23.179Z,69.60
2022-09-10T01:11:12.228Z,69.92
2022-09-10T01:13:44.462Z,69.49
2022-09-10T01:16:10.870Z,69.85
2022-09-10T01:18:55.967Z,69.70
2022-09-10T01:21:34.383Z,69.68
2022-09-10T01:24:19.651Z,69.71
2022-09-10T01:27:06.214Z,69.49
2022-09-10T01:29:39.098Z,69.49
2022-09-10T01:32:10.618Z,69.55
2022-09-10T01:34:41.796Z,69.45
2022-09-10T01:37:12.290Z,69.62
2022-09-10T01:39:39.423Z,69.56
2022-09-10T01:42:06.346Z,69.48
2022-09-10T01:44:46.014Z,69.35
2022-09-10T01:47:15.482Z,69.49
2022-09-10T01:49:54.182Z,69.52
2022-09-10T01:52:43.915Z,69.59
2022-09-10T01:55:21.923Z,69.38
2022-09-10T01:57:59.637Z,69.38
2022-09-10T02:00:26.682Z,69.54
2022-09-10T02:02:56.010Z,69.48
2022-09-10T02:05:23.470Z,69.47
2022-09-10T02:07:52.309Z,69.31
2022-09-10T02:10:18.668Z,69.36
2022-09-10T02:12:45.634Z,69.44
2022-09-10T02:15:12.710Z,69.39
2022-09-10T02:17:39.907Z,69.50
2022-09-10T02:20:08.358Z,69.29
2022-09-10T02:22:36.406Z,69.36
2022-09-10T02:25:03.798Z,69.46
2022-09-10T02:27:30.188Z,69.28
2022-09-10T02:29:57.523Z,69.18
2022-09-10T02:32:24.018Z,69.43
2022-09-10T02:34:50.383Z,69.39
2022-09-10T02:37:16.911Z,69.51
2022-09-10T02:39:45.488Z,69.20
2022-09-10T02:42:14.322Z,69.46
2022-09-10T02:44:40.914Z,69.16
2022-09-10T02:47:07.245Z,69.51
2022-09-10T02:49:34.727Z,69.35
2022-09-10T02:52:02.863Z,69.29
2022-09-10T02:54:29.524Z,69.31
2022-09-10T02:56:56.707Z,69.15
2022-09-10T02:59:23.673Z,69.28
2022-09-10T03:01:50.086Z,69.08
2022-09-10T03:04:17.153Z,69.18
2022-09-10T03:06:43.511Z,68.95
2022-09-10T03:09:10.010Z,69.11
2022-09-10T03:11:40.739Z,68.94
2022-09-10T03:14:08.396Z,69.13
2022-09-10T03:16:35.067Z,68.98
2022-09-10T03:19:01.470Z,69.12
2022-09-10T03:21:28.828Z,69.12
2022-09-10T03:23:56.994Z,69.04
2022-09-10T03:26:25.401Z,68.94
2022-09-10T03:28:52.084Z,69.11
2022-09-10T03:31:18.633Z,69.04
2022-09-10T03:33:46.252Z,68.92
2022-09-10T03:36:13.395Z,68.85
2022-09-10T03:38:40.145Z,69.16
2022-09-10T03:41:06.532Z,69.18
2022-09-10T03:43:32.863Z,69.02
2022-09-10T03:45:59.678Z,68.91
2022-09-10T03:48:26.166Z,69.18
2022-09-10T03:50:52.568Z,68.84
2022-09-10T03:53:19.137Z,68.87
2022-09-10T03:55:46.691Z,68.84
2022-09-10T03:58:13.421Z,68.86
2022-09-10T04:00:39.843Z,68.87
2022-09-10T04:03:06.503Z,68.80
2022-09-10T04:05:33.091Z,69.00
2022-09-10T04:07:59.805Z,68.89
2022-09-10T04:10:26.908Z,69.02
2022-09-10T04:12:53.576Z,68.81
2022-09-10T04:15:20.467Z,68.84
2022-09-10T04:17:47.304Z,68.54
2022-09-10T04:20:13.653Z,68.81
2022-09-10T04:22:40.015Z,68.58
2022-09-10T04:25:06.471Z,68.75
2022-09-10T04:27:32.795Z,68.77
2022-09-10T04:29:59.169Z,68.74
2022-09-10T04:32:25.492Z,68.70
2022-09-10T04:34:51.815Z,68.87
2022-09-10T04:37:19.534Z,68.61
2022-09-10T04:39:46.066Z,68.59
2022-09-10T04:42:13.804Z,68.85
2022-09-10T04:44:40.157Z,68.81
2022-09-10T04:47:06.561Z,68.82
2022-09-10T04:49:32.912Z,68.71
2022-09-10T04:51:59.254Z,68.72
2022-09-10T04:54:25.971Z,68.64
2022-09-10T04:56:52.331Z,68.62
2022-09-10T04:59:18.731Z,68.69
2022-09-10T05:01:45.087Z,68.56
2022-09-10T05:04:11.422Z,68.56
2022-09-10T05:06:37.796Z,68.48
2022-09-10T05:09:04.194Z,68.52
2022-09-10T05:11:31.441Z,68.42
2022-09-10T05:13:58.431Z,68.46
2022-09-10T05:16:24.833Z,68.49
2022-09-10T05:18:51.265Z,68.43
2022-09-10T05:21:18.418Z,68.45
2022-09-10T05:23:45.167Z,68.33
2022-09-10T05:26:12.104Z,68.54
2022-09-10T05:28:38.883Z,68.45
2022-09-10T05:31:07.311Z,68.48
2022-09-10T05:33:33.948Z,68.59
2022-09-10T05:36:00.270Z,68.54
2022-09-10T05:38:26.607Z,68.46
2022-09-10T05:40:53.995Z,68.10
2022-09-10T05:43:21.084Z,68.42
2022-09-10T05:45:47.439Z,68.41
2022-09-10T05:48:13.899Z,68.47
2022-09-10T05:50:40.342Z,68.41
2022-09-10T05:53:06.664Z,68.36
2022-09-10T05:55:33.335Z,68.39
2022-09-10T05:57:59.689Z,68.39
2022-09-10T06:00:26.295Z,68.36
2022-09-10T06:02:53.322Z,68.48
2022-09-10T06:05:22.859Z,68.28
2022-09-10T06:07:49.918Z,68.43
2022-09-10T06:10:16.331Z,68.41
2022-09-10T06:12:46.627Z,68.33
2022-09-10T06:15:13.615Z,68.55
2022-09-10T06:17:40.237Z,68.39
2022-09-10T06:20:06.993Z,68.46
2022-09-10T06:22:33.900Z,68.37
2022-09-10T06:25:00.218Z,68.31
2022-09-10T06:27:26.618Z,68.27
2022-09-10T06:29:52.993Z,68.46
2022-09-10T06:32:19.302Z,68.39
2022-09-10T06:34:45.723Z,68.50
2022-09-10T06:37:12.303Z,68.45
2022-09-10T06:39:38.782Z,68.32
2022-09-10T06:42:05.265Z,68.56
2022-09-10T06:44:31.655Z,68.33
2022-09-10T06:49:44.742Z,68.68
2022-09-10T06:52:13.999Z,68.69
2022-09-10T06:54:40.343Z,68.69
2022-09-10T06:57:06.748Z,68.84
2022-09-10T06:59:33.113Z,68.92
2022-09-10T07:02:00.540Z,68.99
2022-09-10T07:04:26.916Z,68.77
2022-09-10T07:06:53.249Z,68.87
2022-09-10T07:09:19.755Z,68.87
2022-09-10T07:11:46.091Z,68.97
2022-09-10T07:14:12.711Z,68.90
2022-09-10T07:16:42.160Z,69.07
2022-09-10T07:19:13.320Z,68.99
2022-09-10T07:21:39.757Z,68.99
2022-09-10T07:24:06.189Z,68.99
2022-09-10T07:26:32.660Z,68.95
2022-09-10T07:28:59.143Z,68.88
2022-09-10T07:31:29.876Z,69.09
2022-09-10T07:34:00.628Z,69.08
2022-09-10T07:36:28.238Z,69.02
2022-09-10T07:38:55.510Z,69.04
2022-09-10T07:41:21.994Z,69.14
2022-09-10T07:43:49.531Z,69.24
2022-09-10T07:46:20.484Z,69.13
2022-09-10T07:48:54.343Z,69.05
2022-09-10T07:51:21.570Z,69.19
2022-09-10T07:53:51.482Z,69.17
2022-09-10T07:56:17.884Z,69.36
2022-09-10T07:58:44.810Z,69.43
2022-09-10T08:01:12.414Z,69.33
2022-09-10T08:03:39.935Z,69.36
2022-09-10T08:06:06.991Z,69.44
2022-09-10T08:08:35.379Z,69.48
2022-09-10T08:11:11.871Z,69.56
2022-09-10T08:13:42.453Z,69.43
2022-09-10T08:16:10.454Z,69.68
2022-09-10T08:18:37.346Z,69.41
2022-09-10T08:21:04.491Z,69.69
2022-09-10T08:23:31.335Z,69.53
2022-09-10T08:25:58.290Z,69.73
2022-09-10T08:28:25.788Z,69.79
2022-09-10T08:30:57.028Z,69.95
2022-09-10T08:33:23.899Z,69.74
2022-09-10T08:35:57.242Z,69.78
2022-09-10T08:38:29.195Z,69.90
2022-09-10T08:40:57.408Z,70.00
2022-09-10T08:43:31.479Z,69.82
2022-09-10T08:46:01.798Z,69.82
2022-09-10T08:48:30.766Z,70.00
2022-09-10T08:51:00.355Z,69.92
2022-09-10T08:53:45.388Z,69.82
2022-09-10T08:56:15.314Z,69.56
2022-09-10T08:58:47.749Z,69.56
2022-09-10T09:01:42.425Z,69.48
2022-09-10T09:04:17.907Z,69.41
2022-09-10T09:06:47.034Z,69.69
2022-09-10T09:09:15.730Z,69.64
2022-09-10T09:11:45.091Z,68.45
2022-09-10T09:14:17.427Z,68.65
2022-09-10T09:16:46.823Z,68.77
2022-09-10T09:19:20.374Z,68.46
2022-09-10T09:22:01.556Z,68.38
2022-09-10T09:24:49.403Z,68.69
2022-09-10T09:27:16.814Z,68.77
2022-09-10T09:29:46.191Z,68.74
2022-09-10T09:32:15.977Z,68.83
2022-09-10T09:34:46.115Z,69.05
2022-09-10T09:37:17.559Z,69.15
2022-09-10T09:39:53.723Z,69.07
2022-09-10T09:42:31.204Z,69.41
2022-09-10T09:44:57.572Z,69.19
2022-09-10T09:47:23.923Z,69.02
2022-09-10T09:49:50.390Z,68.84
2022-09-10T09:52:24.825Z,69.02
2022-09-10T09:55:15.594Z,69.15
2022-09-10T09:57:42.970Z,69.01
2022-09-10T10:00:28.154Z,69.00
2022-09-10T10:02:54.600Z,68.98
2022-09-10T10:05:24.736Z,69.10
2022-09-10T10:07:51.158Z,69.25
2022-09-10T10:10:24.603Z,69.34
2022-09-10T10:12:52.897Z,69.19
2022-09-10T10:15:38.827Z,69.07
2022-09-10T10:18:25.524Z,69.34
2022-09-10T10:21:11.235Z,69.61
2022-09-10T10:23:38.524Z,69.50
2022-09-10T10:26:23.318Z,69.66
2022-09-10T10:29:07.033Z,69.62
2022-09-10T10:31:34.939Z,69.61
2022-09-10T10:34:01.263Z,69.54
2022-09-10T10:36:34.718Z,69.72
2022-09-10T10:39:07.463Z,69.73
2022-09-10T10:42:04.373Z,69.74
2022-09-10T10:44:41.859Z,69.92
2022-09-10T10:47:26.231Z,69.41
2022-09-10T10:49:53.308Z,69.57
2022-09-10T10:52:38.294Z,69.48
2022-09-10T10:55:16.820Z,69.54
2022-09-10T10:57:49.371Z,69.56
2022-09-10T11:00:17.392Z,69.79
2022-09-10T11:02:56.035Z,69.79
2022-09-10T11:05:31.604Z,69.59
2022-09-10T11:08:00.047Z,69.77
2022-09-10T11:10:31.483Z,69.67
2022-09-10T11:13:00.947Z,69.86
2022-09-10T11:15:33.455Z,69.72
2022-09-10T11:18:14.487Z,69.81
2022-09-10T11:20:42.749Z,69.49
2022-09-10T11:23:22.155Z,69.59
2022-09-10T11:26:08.789Z,69.58
2022-09-10T11:28:41.280Z,69.52
2022-09-10T11:31:13.011Z,69.54
2022-09-10T11:33:55.533Z,69.51
2022-09-10T11:36:42.017Z,69.38
2022-09-10T11:39:17.116Z,69.52
2022-09-10T11:41:46.679Z,69.42
2022-09-10T11:44:16.435Z,69.64
2022-09-10T11:46:50.222Z,69.46
2022-09-10T11:49:22.963Z,69.47
2022-09-10T11:51:50.069Z,69.74
2022-09-10T11:54:18.103Z,69.61
2022-09-10T11:57:03.077Z,69.51
2022-09-10T11:59:44.896Z,69.78
2022-09-10T12:02:36.234Z,69.56
2022-09-10T12:05:19.292Z,69.44
2022-09-10T12:07:52.343Z,70.14
2022-09-10T12:10:23.132Z,70.18
2022-09-10T12:12:50.323Z,69.72
2022-09-10T12:15:21.549Z,70.00
2022-09-10T12:17:50.581Z,69.88
2022-09-10T12:20:25.532Z,69.84
2022-09-10T12:22:54.851Z,69.91
2022-09-10T12:25:21.195Z,69.84
2022-09-10T12:27:49.559Z,69.89
2022-09-10T12:30:25.139Z,69.86
2022-09-10T12:32:53.437Z,70.17
2022-09-10T12:35:32.733Z,69.84
2022-09-10T12:38:17.712Z,70.04
2022-09-10T12:40:45.234Z,69.80
2022-09-10T12:43:31.512Z,70.18
2022-09-10T12:46:02.963Z,70.31
2022-09-10T12:48:29.894Z,70.21
2022-09-10T12:50:58.891Z,70.38
2022-09-10T12:53:31.343Z,69.77
2022-09-10T12:56:02.140Z,69.75
2022-09-10T12:58:46.311Z,69.94
2022-09-10T13:01:21.399Z,70.06
2022-09-10T13:03:54.738Z,70.03
2022-09-10T13:06:33.541Z,69.94
2022-09-10T13:08:59.943Z,69.98
2022-09-10T13:11:29.056Z,70.01
2022-09-10T13:14:01.183Z,70.19
2022-09-10T13:16:27.926Z,69.96
2022-09-10T13:19:14.204Z,70.15
2022-09-10T13:21:40.544Z,70.23
2022-09-10T13:24:25.532Z,70.18
2022-09-10T13:27:02.385Z,70.08
2022-09-10T13:29:40.118Z,70.05
2022-09-10T13:32:27.167Z,70.21
2022-09-10T13:34:53.496Z,70.21
2022-09-10T13:37:40.281Z,70.20
2022-09-10T13:40:25.511Z,70.25
2022-09-10T13:43:10.250Z,70.10
2022-09-10T13:45:41.398Z,70.01
2022-09-10T13:48:17.450Z,70.32
2022-09-10T13:51:02.656Z,70.10
2022-09-10T13:53:30.050Z,70.34
2022-09-10T13:55:58.625Z,70.36
2022-09-10T13:58:28.567Z,70.47
2022-09-10T14:01:00.965Z,70.19
2022-09-10T14:03:32.387Z,70.56
2022-09-10T14:06:01.847Z,70.25
2022-09-10T14:08:32.814Z,70.46
2022-09-10T14:11:02.900Z,70.36
2022-09-10T14:13:36.891Z,70.54
2022-09-10T14:16:05.121Z,70.36
2022-09-10T14:18:52.387Z,70.32
2022-09-10T14:21:26.811Z,70.38
2022-09-10T14:23:57.187Z,70.36
2022-09-10T14:26:26.283Z,70.39
2022-09-10T14:28:59.634Z,70.59
2022-09-10T14:31:26.550Z,70.71
2022-09-10T14:33:53.762Z,69.96
2022-09-10T14:36:21.800Z,69.51
2022-09-10T14:39:03.518Z,69.33
2022-09-10T14:41:31.042Z,69.90
2022-09-10T14:44:12.807Z,69.87
2022-09-10T14:46:46.727Z,69.69
2022-09-10T14:49:17.444Z,69.71
2022-09-10T14:51:43.782Z,69.72
2022-09-10T14:54:14.970Z,69.64
2022-09-10T14:56:43.879Z,69.77
2022-09-10T14:59:30.479Z,69.94
2022-09-10T15:01:57.616Z,69.92
2022-09-10T15:04:26.750Z,69.83
2022-09-10T15:06:53.623Z,69.95
2022-09-10T15:09:20.489Z,69.97
2022-09-10T15:11:53.531Z,69.94
2022-09-10T15:14:20.698Z,69.93
2022-09-10T15:16:48.104Z,69.90
2022-09-10T15:19:14.454Z,69.74
2022-09-10T15:21:40.779Z,70.02
2022-09-10T15:24:07.146Z,69.90
2022-09-10T15:26:33.571Z,69.89
2022-09-10T15:29:00.391Z,69.82
2022-09-10T15:31:32.064Z,70.09
2022-09-10T15:33:59.242Z,70.12
2022-09-10T15:36:25.967Z,70.11
2022-09-10T15:38:52.515Z,70.15
2022-09-10T15:41:19.271Z,70.03
2022-09-10T15:43:46.086Z,70.08
2022-09-10T15:46:13.352Z,69.92
2022-09-10T15:48:40.061Z,70.04
2022-09-10T15:51:09.244Z,69.96
2022-09-10T15:53:35.979Z,70.14
2022-09-10T15:56:03.216Z,69.97
2022-09-10T15:58:29.615Z,69.98
2022-09-10T16:01:00.635Z,70.03
2022-09-10T16:03:26.991Z,70.04
2022-09-10T16:05:53.375Z,69.98
2022-09-10T16:08:19.777Z,70.12
2022-09-10T16:10:46.135Z,70.23
2022-09-10T16:13:12.460Z,69.98
2022-09-10T16:15:39.539Z,70.33
2022-09-10T16:18:06.537Z,70.19
2022-09-10T16:20:33.323Z,70.25
2022-09-10T16:22:59.724Z,70.28
2022-09-10T16:25:26.082Z,70.31
2022-09-10T16:27:52.534Z,70.23
2022-09-10T16:30:18.827Z,70.38
2022-09-10T16:32:46.167Z,70.54
2022-09-10T16:35:12.536Z,70.19
2022-09-10T16:37:39.043Z,70.38
2022-09-10T16:40:05.676Z,70.39
2022-09-10T16:42:32.039Z,70.29
2022-09-10T16:44:58.446Z,70.38
2022-09-10T16:47:24.814Z,70.60
2022-09-10T16:49:51.135Z,70.33
2022-09-10T16:52:17.604Z,70.43
2022-09-10T16:54:46.080Z,70.65
2022-09-10T16:57:12.386Z,70.28
2022-09-10T16:59:38.706Z,70.49
2022-09-10T17:02:05.468Z,70.31
2022-09-10T17:04:34.638Z,70.48
2022-09-10T17:07:00.967Z,70.57
2022-09-10T17:09:27.396Z,70.60
2022-09-10T17:11:53.887Z,70.45
2022-09-10T17:14:20.265Z,70.58
2022-09-10T17:16:48.052Z,70.63
2022-09-10T17:19:18.640Z,70.66
2022-09-10T17:21:48.815Z,70.55
2022-09-10T17:24:15.143Z,70.59
2022-09-10T17:26:41.674Z,70.44
2022-09-10T17:29:09.439Z,70.64
2022-09-10T17:31:35.844Z,70.63
2022-09-10T17:34:03.727Z,70.72
2022-09-10T17:36:30.673Z,70.54
2022-09-10T17:38:59.198Z,70.58
2022-09-10T17:41:26.703Z,70.64
2022-09-10T17:43:53.062Z,70.62
2022-09-10T17:46:21.386Z,70.67
2022-09-10T17:48:48.371Z,70.51
2022-09-10T17:51:16.154Z,70.72
2022-09-10T17:53:43.425Z,70.73
2022-09-10T17:56:11.547Z,70.72
2022-09-10T17:58:38.486Z,70.53
2022-09-10T18:01:07.968Z,70.76
2022-09-10T18:03:35.259Z,70.70
2022-09-10T18:06:05.724Z,70.49
2022-09-10T18:08:33.055Z,70.54
2022-09-10T18:11:04.527Z,70.66
2022-09-10T18:13:30.963Z,70.79
2022-09-10T18:15:57.452Z,70.63
2022-09-10T18:18:23.808Z,70.71
2022-09-10T18:20:50.251Z,70.78
2022-09-10T18:23:16.679Z,70.64
2022-09-10T18:25:47.853Z,70.57
2022-09-10T18:28:16.146Z,70.82
2022-09-10T18:30:42.541Z,70.77
2022-09-10T18:33:11.647Z,70.54
2022-09-10T18:35:38.002Z,70.51
2022-09-10T18:38:04.795Z,70.70
2022-09-10T18:40:31.170Z,70.75
2022-09-10T18:42:57.790Z,70.65
2022-09-10T18:45:24.101Z,70.68
2022-09-10T18:47:50.485Z,70.53
2022-09-10T18:50:16.973Z,70.73
2022-09-10T18:52:43.372Z,70.64
2022-09-10T18:55:09.780Z,70.69
2022-09-10T18:57:36.616Z,70.66
2022-09-10T19:00:03.290Z,70.46
2022-09-10T19:02:29.742Z,70.72
2022-09-10T19:05:12.552Z,70.52
2022-09-10T19:07:39.130Z,70.72
2022-09-10T19:10:07.143Z,70.75
2022-09-10T19:12:33.750Z,70.68
2022-09-10T19:15:00.527Z,70.49
2022-09-10T19:17:26.933Z,70.65
2022-09-10T19:19:53.255Z,70.57
2022-09-10T19:22:19.691Z,70.83
2022-09-10T19:24:55.725Z,70.76
2022-09-10T19:27:23.154Z,70.58
2022-09-10T19:29:50.330Z,70.66
2022-09-10T19:32:17.178Z,70.54
2022-09-10T19:34:43.775Z,70.84
2022-09-10T19:37:10.211Z,70.38
2022-09-10T19:39:36.702Z,70.31
2022-09-10T19:42:03.363Z,70.46
2022-09-10T19:44:29.770Z,70.49
2022-09-10T19:46:56.129Z,70.36
2022-09-10T19:49:22.558Z,70.31
2022-09-10T19:51:48.990Z,70.33
2022-09-10T19:54:16.121Z,70.32
2022-09-10T19:56:42.830Z,70.46
2022-09-10T19:59:09.939Z,70.13
2022-09-10T20:01:40.817Z,70.28
2022-09-10T20:04:09.079Z,70.34
2022-09-10T20:06:35.812Z,70.37
2022-09-10T20:09:02.674Z,70.42
2022-09-10T20:11:31.508Z,70.19
2022-09-10T20:13:59.482Z,70.38
2022-09-10T20:16:26.229Z,70.18
2022-09-10T20:18:52.664Z,70.27
2022-09-10T20:21:20.256Z,70.38
2022-09-10T20:23:47.524Z,70.16
2022-09-10T20:26:18.626Z,70.30
2022-09-10T20:28:45.289Z,70.49
2022-09-10T20:31:13.003Z,70.60
2022-09-10T20:33:42.330Z,70.67
2022-09-10T20:36:11.044Z,70.64
2022-09-10T20:38:38.272Z,70.32
2022-09-10T20:41:05.791Z,70.22
2022-09-10T20:43:32.592Z,70.31
2022-09-10T20:45:59.091Z,70.46
2022-09-10T20:48:25.932Z,70.50
2022-09-10T20:50:53.392Z,70.54
2022-09-10T20:53:19.967Z,70.40
2022-09-10T20:55:46.300Z,70.48
2022-09-10T20:58:13.202Z,70.57
2022-09-10T21:00:40.627Z,70.42
2022-09-10T21:03:06.940Z,70.59
2022-09-10T21:05:33.372Z,70.51
2022-09-10T21:07:59.694Z,70.30
2022-09-10T21:10:26.024Z,70.66
2022-09-10T21:12:52.768Z,70.36
2022-09-10T21:15:19.078Z,70.57
2022-09-10T21:17:46.821Z,70.62
2022-09-10T21:20:13.412Z,70.62
2022-09-10T21:22:39.920Z,70.48
2022-09-10T21:25:07.407Z,70.31
2022-09-10T21:27:33.787Z,70.55
2022-09-10T21:30:00.154Z,70.26
2022-09-10T21:32:26.533Z,70.53
2022-09-10T21:34:53.787Z,70.38
2022-09-10T21:37:20.227Z,70.47
2022-09-10T21:39:46.768Z,70.44
2022-09-10T21:42:13.110Z,70.33
2022-09-10T21:44:39.452Z,70.57
2022-09-10T21:47:05.835Z,70.57
2022-09-10T21:49:32.159Z,70.37
2022-09-10T21:51:58.503Z,70.28
2022-09-10T21:54:25.442Z,70.38
2022-09-10T21:56:52.211Z,70.35
2022-09-10T21:59:19.398Z,70.36
2022-09-10T22:01:46.495Z,70.31
2022-09-10T22:04:13.675Z,70.49
2022-09-10T22:06:40.251Z,70.46
2022-09-10T22:09:11.453Z,70.53
2022-09-10T22:11:39.291Z,70.36
2022-09-10T22:14:07.500Z,70.46
2022-09-10T22:16:34.819Z,70.37
2022-09-10T22:19:02.958Z,70.23
2022-09-10T22:21:29.403Z,70.35
2022-09-10T22:23:55.890Z,70.23
2022-09-10T22:26:24.084Z,70.12
2022-09-10T22:28:54.522Z,70.21
2022-09-10T22:31:22.433Z,70.28
2022-09-10T22:33:52.750Z,70.21
2022-09-10T22:36:20.459Z,70.07
2022-09-10T22:38:50.855Z,70.23
2022-09-10T22:41:17.430Z,70.33
2022-09-10T22:43:43.831Z,70.33
2022-09-10T22:46:10.630Z,70.18
2022-09-10T22:48:37.867Z,70.18
2022-09-10T22:51:05.399Z,70.31
2022-09-10T22:53:31.773Z,70.21
2022-09-10T22:55:58.477Z,70.04
2022-09-10T22:58:26.352Z,70.08
2022-09-10T23:00:53.412Z,70.19
2022-09-10T23:03:22.947Z,70.03
2022-09-10T23:05:49.677Z,70.22
2022-09-10T23:08:17.095Z,70.05
2022-09-10T23:10:43.437Z,70.19
2022-09-10T23:13:09.844Z,70.00
2022-09-10T23:15:36.450Z,70.04
2022-09-10T23:18:02.824Z,70.13
2022-09-10T23:20:29.174Z,70.15
2022-09-10T23:22:55.498Z,70.03
2022-09-10T23:25:21.886Z,70.13
2022-09-10T23:27:48.860Z,70.26
2022-09-10T23:30:16.098Z,70.18
2022-09-10T23:32:43.635Z,70.18
2022-09-10T23:35:10.079Z,70.15
2022-09-10T23:37:36.523Z,70.21
2022-09-10T23:40:03.602Z,69.95
2022-09-10T23:42:31.287Z,70.08
2022-09-10T23:44:57.614Z,70.10
2022-09-10T23:47:23.986Z,69.99
2022-09-10T23:49:50.298Z,70.00
2022-09-10T23:52:16.644Z,70.08
2022-09-10T23:54:43.007Z,69.86
2022-09-10T23:57:09.299Z,69.87
2022-09-10T23:59:35.619Z,69.77
